createdAt,value
2022-10-19T00:00:52.003Z,1.10
2022-10-19T00:03:22.403Z,1.57
2022-10-19T00:05:52.444Z,1.33
2022-10-19T00:08:20.186Z,1.13
2022-10-19T00:10:48.061Z,1.23
2022-10-19T00:13:16.179Z,1.00
2022-10-19T00:15:45.137Z,1.73
2022-10-19T00:18:12.841Z,1.40
2022-10-19T00:20:40.606Z,1.53
2022-10-19T00:23:11.045Z,1.33
2022-10-19T00:25:38.945Z,1.90
2022-10-19T00:28:06.898Z,1.27
2022-10-19T00:30:38.172Z,1.43
2022-10-19T00:33:05.919Z,1.17
2022-10-19T00:35:33.691Z,1.20
2022-10-19T00:38:01.397Z,1.00
2022-10-19T00:40:30.953Z,0.87
2022-10-19T00:42:58.638Z,0.63
2022-10-19T00:45:27.697Z,0.87
2022-10-19T00:47:55.796Z,0.60
2022-10-19T00:50:23.777Z,0.53
2022-10-19T00:52:51.584Z,0.70
2022-10-19T00:55:19.797Z,0.50
2022-10-19T00:57:48.983Z,0.90
2022-10-19T01:00:16.915Z,0.80
2022-10-19T01:02:44.720Z,0.60
2022-10-19T01:05:12.786Z,0.97
2022-10-19T01:07:40.702Z,0.90
2022-10-19T01:10:09.807Z,0.97
2022-10-19T01:12:56.887Z,0.73
2022-10-19T01:15:33.607Z,0.90
2022-10-19T01:18:07.776Z,1.30
2022-10-19T01:21:04.262Z,1.33
2022-10-19T01:24:16.079Z,0.83
2022-10-19T01:27:28.715Z,1.07
2022-10-19T01:30:05.390Z,1.20
2022-10-19T01:32:43.826Z,1.27
2022-10-19T01:35:17.913Z,0.90
2022-10-19T01:37:50.347Z,1.20
2022-10-19T01:40:27.873Z,0.90
2022-10-19T01:43:02.455Z,1.10
2022-10-19T01:45:39.639Z,0.83
2022-10-19T01:48:13.313Z,0.97
2022-10-19T01:50:47.063Z,0.70
2022-10-19T01:53:16.925Z,1.03
2022-10-19T01:55:48.707Z,1.23
2022-10-19T01:58:20.621Z,0.80
2022-10-19T02:00:54.665Z,1.30
2022-10-19T02:03:24.475Z,1.00
2022-10-19T02:05:54.133Z,1.10
2022-10-19T02:08:28.597Z,1.33
2022-10-19T02:10:57.925Z,1.00
2022-10-19T02:13:27.505Z,0.90
2022-10-19T02:16:00.083Z,0.80
2022-10-19T02:18:32.807Z,1.07
2022-10-19T02:21:03.155Z,0.90
2022-10-19T02:23:31.333Z,1.33
2022-10-19T02:26:00.335Z,1.10
2022-10-19T02:28:29.292Z,1.07
2022-10-19T02:30:59.915Z,0.90
2022-10-19T02:33:28.642Z,1.20
2022-10-19T02:35:56.949Z,1.10
2022-10-19T02:38:25.897Z,1.00
2022-10-19T02:41:01.015Z,1.50
2022-10-19T02:43:30.063Z,1.70
2022-10-19T02:46:05.328Z,1.30
2022-10-19T02:48:35.115Z,1.27
2022-10-19T02:51:03.379Z,1.87
2022-10-19T02:53:31.124Z,2.10
2022-10-19T02:55:58.923Z,1.70
2022-10-19T02:58:26.645Z,1.57
2022-10-19T03:00:54.474Z,2.20
2022-10-19T03:03:23.676Z,2.00
2022-10-19T03:05:52.218Z,2.03
2022-10-19T03:08:19.936Z,1.80
2022-10-19T03:10:47.681Z,1.83
2022-10-19T03:13:15.499Z,1.77
2022-10-19T03:15:43.198Z,2.00
2022-10-19T03:18:10.954Z,2.03
2022-10-19T03:20:40.009Z,2.37
2022-10-19T03:23:07.778Z,2.17
2022-10-19T03:25:35.497Z,1.83
2022-10-19T03:28:03.194Z,2.47
2022-10-19T03:30:30.926Z,2.07
2022-10-19T03:32:58.652Z,1.97
2022-10-19T03:35:26.392Z,2.40
2022-10-19T03:37:55.439Z,2.00
2022-10-19T03:40:23.154Z,1.80
2022-10-19T03:42:50.837Z,2.87
2022-10-19T03:45:18.573Z,2.33
2022-10-19T03:47:50.400Z,1.67
2022-10-19T03:50:18.367Z,1.80
2022-10-19T03:52:46.278Z,2.03
2022-10-19T03:55:15.636Z,2.20
2022-10-19T03:57:43.717Z,2.77
2022-10-19T04:00:12.642Z,2.27
2022-10-19T04:02:40.553Z,2.57
2022-10-19T04:05:09.219Z,3.00
2022-10-19T04:07:36.922Z,2.13
2022-10-19T04:10:05.089Z,2.47
2022-10-19T04:12:34.359Z,2.33
2022-10-19T04:15:02.051Z,2.47
2022-10-19T04:17:29.747Z,2.60
2022-10-19T04:19:57.472Z,2.07
2022-10-19T04:22:25.182Z,2.23
2022-10-19T04:24:52.956Z,2.07
2022-10-19T04:27:20.663Z,2.40
2022-10-19T04:29:49.776Z,2.70
2022-10-19T04:32:17.490Z,2.70
2022-10-19T04:34:45.205Z,2.60
2022-10-19T04:37:12.958Z,3.13
2022-10-19T04:39:43.171Z,2.47
2022-10-19T04:42:10.875Z,2.77
2022-10-19T04:44:38.917Z,2.40
2022-10-19T04:47:08.043Z,2.50
2022-10-19T04:49:35.776Z,2.57
2022-10-19T04:52:03.493Z,2.23
2022-10-19T04:54:31.249Z,2.03
2022-10-19T04:56:59.186Z,2.20
2022-10-19T04:59:26.907Z,1.60
2022-10-19T05:01:54.632Z,2.50
2022-10-19T05:04:23.731Z,1.60
2022-10-19T05:06:51.572Z,2.37
2022-10-19T05:09:19.315Z,2.17
2022-10-19T05:11:47.429Z,1.87
2022-10-19T05:14:15.325Z,1.90
2022-10-19T05:16:43.284Z,1.60
2022-10-19T05:19:14.247Z,1.60
2022-10-19T05:21:43.469Z,1.90
2022-10-19T05:24:12.795Z,1.80
2022-10-19T05:26:40.594Z,2.00
2022-10-19T05:29:12.952Z,1.30
2022-10-19T05:31:41.030Z,1.50
2022-10-19T05:34:08.866Z,1.17
2022-10-19T05:36:38.240Z,2.30
2022-10-19T05:39:10.314Z,3.50
2022-10-19T05:41:38.107Z,3.77
2022-10-19T05:44:06.894Z,3.40
2022-10-19T05:46:35.838Z,1.57
2022-10-19T05:49:03.603Z,1.63
2022-10-19T05:51:31.308Z,1.30
2022-10-19T05:53:59.149Z,1.20
2022-10-19T05:56:30.504Z,1.27
2022-10-19T05:58:59.429Z,1.60
2022-10-19T06:01:28.393Z,2.23
2022-10-19T06:03:58.076Z,1.30
2022-10-19T06:06:26.878Z,1.60
2022-10-19T06:08:56.567Z,1.20
2022-10-19T06:11:26.731Z,1.50
2022-10-19T06:13:57.782Z,1.80
2022-10-19T06:16:27.022Z,1.10
2022-10-19T06:18:56.118Z,1.30
2022-10-19T06:21:25.621Z,1.60
2022-10-19T06:23:53.911Z,1.43
2022-10-19T06:26:22.271Z,0.83
2022-10-19T06:28:50.813Z,1.43
2022-10-19T06:31:19.923Z,1.40
2022-10-19T06:33:49.438Z,1.40
2022-10-19T06:36:19.240Z,1.60
2022-10-19T06:38:47.388Z,1.30
2022-10-19T06:41:15.721Z,1.20
2022-10-19T06:43:44.390Z,1.50
2022-10-19T06:46:14.914Z,1.27
2022-10-19T06:48:44.380Z,2.17
2022-10-19T06:51:13.588Z,4.00
2022-10-19T06:53:41.315Z,2.10
2022-10-19T06:56:09.695Z,1.40
2022-10-19T06:58:38.169Z,1.43
2022-10-19T07:01:08.457Z,1.30
2022-10-19T07:03:37.263Z,1.20
2022-10-19T07:06:08.482Z,1.13
2022-10-19T07:08:37.357Z,2.87
2022-10-19T07:11:07.269Z,1.40
2022-10-19T07:13:35.187Z,5.10
2022-10-19T07:16:09.287Z,4.87
2022-10-19T07:18:38.632Z,1.60
2022-10-19T07:21:09.753Z,1.57
2022-10-19T07:23:39.757Z,1.53
2022-10-19T07:26:11.844Z,1.20
2022-10-19T07:28:40.912Z,1.20
2022-10-19T07:31:10.447Z,1.50
2022-10-19T07:33:38.817Z,1.50
2022-10-19T07:36:09.996Z,1.10
2022-10-19T07:38:38.632Z,1.20
2022-10-19T07:41:08.448Z,1.27
2022-10-19T07:43:36.284Z,1.20
2022-10-19T07:46:06.333Z,6.50
2022-10-19T07:48:34.371Z,3.10
2022-10-19T07:51:03.219Z,1.40
2022-10-19T07:53:32.305Z,1.97
2022-10-19T07:56:05.012Z,1.10
2022-10-19T07:58:32.769Z,1.37
2022-10-19T08:01:01.814Z,1.03
2022-10-19T08:06:20.039Z,1.10
2022-10-19T08:08:50.183Z,1.40
2022-10-19T08:11:20.310Z,1.00
2022-10-19T08:13:48.438Z,1.10
2022-10-19T08:16:25.258Z,0.87
2022-10-19T08:18:54.257Z,0.90
2022-10-19T08:21:21.964Z,1.10
2022-10-19T08:23:51.037Z,1.10
2022-10-19T08:26:18.748Z,0.90
2022-10-19T08:28:46.575Z,1.00
2022-10-19T08:31:16.903Z,1.30
2022-10-19T08:33:44.886Z,1.47
2022-10-19T08:36:14.510Z,0.90
2022-10-19T08:38:44.700Z,1.20
2022-10-19T08:41:33.898Z,1.03
2022-10-19T08:44:41.420Z,1.10
2022-10-19T08:47:23.552Z,1.00
2022-10-19T08:49:52.210Z,1.90
2022-10-19T08:52:22.389Z,1.20
2022-10-19T08:54:54.439Z,0.90
2022-10-19T08:57:40.994Z,1.10
2022-10-19T09:00:13.725Z,1.40
2022-10-19T09:02:55.318Z,5.87
2022-10-19T09:05:36.878Z,5.50
2022-10-19T09:08:06.985Z,1.23
2022-10-19T09:10:38.525Z,0.97
2022-10-19T09:13:16.250Z,0.87
2022-10-19T09:15:47.208Z,1.10
2022-10-19T09:18:19.893Z,1.00
2022-10-19T09:20:50.165Z,1.17
2022-10-19T09:23:23.274Z,3.73
2022-10-19T09:25:52.123Z,3.43
2022-10-19T09:28:41.585Z,2.23
2022-10-19T09:31:16.393Z,3.87
2022-10-19T09:33:47.954Z,1.10
2022-10-19T09:36:22.785Z,0.90
2022-10-19T09:38:55.598Z,1.13
2022-10-19T09:41:25.392Z,0.90
2022-10-19T09:43:55.770Z,0.80
2022-10-19T09:46:38.673Z,1.13
2022-10-19T09:49:06.944Z,0.80
2022-10-19T09:51:45.922Z,1.10
2022-10-19T09:54:32.104Z,0.90
2022-10-19T09:56:59.942Z,0.90
2022-10-19T09:59:34.422Z,0.80
2022-10-19T10:02:14.876Z,0.70
2022-10-19T10:04:43.058Z,0.93
2022-10-19T10:07:17.353Z,0.60
2022-10-19T10:09:46.045Z,0.70
2022-10-19T10:12:16.593Z,0.50
2022-10-19T10:14:46.410Z,1.17
2022-10-19T10:17:17.965Z,0.87
2022-10-19T10:20:03.946Z,0.60
2022-10-19T10:22:34.336Z,0.97
2022-10-19T10:25:03.411Z,1.00
2022-10-19T10:27:34.549Z,0.80
2022-10-19T10:30:08.290Z,0.90
2022-10-19T10:32:38.886Z,0.67
2022-10-19T10:35:15.808Z,0.50
2022-10-19T10:37:45.697Z,1.00
2022-10-19T10:40:23.505Z,0.60
2022-10-19T10:42:53.661Z,0.70
2022-10-19T10:45:30.248Z,0.60
2022-10-19T10:47:59.121Z,0.97
2022-10-19T10:50:32.993Z,1.00
2022-10-19T10:53:03.301Z,1.20
2022-10-19T10:55:31.848Z,1.00
2022-10-19T10:58:19.163Z,1.00
2022-10-19T11:00:50.266Z,0.73
2022-10-19T11:03:23.999Z,0.97
2022-10-19T11:05:57.002Z,1.20
2022-10-19T11:08:33.194Z,1.07
2022-10-19T11:11:08.603Z,1.20
2022-10-19T11:13:43.630Z,0.80
2022-10-19T11:16:16.638Z,0.80
2022-10-19T11:18:48.539Z,1.03
2022-10-19T11:21:21.787Z,0.70
2022-10-19T11:24:00.002Z,0.87
2022-10-19T11:26:41.176Z,1.20
2022-10-19T11:29:27.959Z,0.80
2022-10-19T11:31:58.119Z,1.00
2022-10-19T11:34:48.166Z,0.80
2022-10-19T11:37:25.889Z,1.00
2022-10-19T11:40:05.157Z,0.93
2022-10-19T11:42:48.600Z,0.73
2022-10-19T15:06:51.798Z,0.70
2022-10-19T15:09:37.497Z,0.87
2022-10-19T15:12:17.986Z,0.77
2022-10-19T15:14:47.209Z,0.90
2022-10-19T15:17:26.960Z,0.90
2022-10-19T15:20:01.076Z,0.80
2022-10-19T15:22:41.027Z,0.90
2022-10-19T15:25:28.197Z,0.90
2022-10-19T15:27:57.618Z,0.60
2022-10-19T15:30:29.435Z,1.00
2022-10-19T15:33:11.162Z,0.80
2022-10-19T15:35:40.972Z,0.80
2022-10-19T15:38:16.033Z,0.80
2022-10-19T15:40:47.037Z,6.17
2022-10-19T15:43:37.979Z,1.50
2022-10-19T15:46:07.664Z,0.97
2022-10-19T15:48:50.036Z,0.67
2022-10-19T15:51:39.323Z,0.90
2022-10-19T15:54:07.958Z,1.13
2022-10-19T15:56:39.761Z,0.87
2022-10-19T15:59:13.068Z,1.00
2022-10-19T16:01:41.109Z,1.20
2022-10-19T16:04:09.104Z,0.93
2022-10-19T16:06:39.932Z,0.80
2022-10-19T16:09:08.006Z,1.40
2022-10-19T16:11:37.157Z,0.90
2022-10-19T16:14:04.990Z,1.13
2022-10-19T16:16:34.293Z,1.00
2022-10-19T16:19:02.427Z,1.20
2022-10-19T16:21:32.729Z,1.50
2022-10-19T16:24:01.186Z,2.00
2022-10-19T16:26:29.209Z,2.03
2022-10-19T16:28:58.257Z,2.43
2022-10-19T16:31:26.085Z,2.10
2022-10-19T16:33:53.880Z,3.00
2022-10-19T16:36:21.587Z,1.83
2022-10-19T16:38:49.690Z,1.70
2022-10-19T16:41:17.745Z,1.73
2022-10-19T16:43:45.404Z,1.67
2022-10-19T16:46:14.451Z,1.33
2022-10-19T16:48:42.115Z,1.57
2022-10-19T16:51:34.224Z,1.20
2022-10-19T16:54:01.946Z,1.73
2022-10-19T16:56:31.927Z,1.30
2022-10-19T16:59:01.355Z,1.43
2022-10-19T17:01:31.403Z,1.20
2022-10-19T17:03:59.661Z,0.87
2022-10-19T17:06:28.584Z,1.40
2022-10-19T17:11:45.129Z,2.53
2022-10-19T17:14:13.910Z,3.30
2022-10-19T17:16:43.009Z,1.57
2022-10-19T17:19:11.760Z,2.13
2022-10-19T17:21:42.278Z,3.50
2022-10-19T17:24:20.385Z,1.60
2022-10-19T17:26:50.677Z,1.50
2022-10-19T17:29:18.619Z,1.70
2022-10-19T17:31:48.027Z,2.30
2022-10-19T17:34:16.085Z,1.90
2022-10-19T17:36:45.547Z,1.93
2022-10-19T17:39:17.637Z,2.40
2022-10-19T17:41:45.834Z,2.03
2022-10-19T17:44:13.606Z,2.17
2022-10-19T17:46:41.283Z,2.73
2022-10-19T17:49:10.879Z,4.33
2022-10-19T17:51:39.180Z,5.90
2022-10-19T17:54:09.423Z,6.73
2022-10-19T17:56:37.974Z,2.70
2022-10-19T17:59:07.945Z,3.00
2022-10-19T18:01:36.277Z,3.30
2022-10-19T18:04:04.319Z,2.90
2022-10-19T18:06:35.465Z,3.03
2022-10-19T18:09:05.583Z,2.20
2022-10-19T18:11:36.977Z,2.37
2022-10-19T18:14:06.004Z,5.33
2022-10-19T18:16:35.947Z,9.97
2022-10-19T18:19:05.381Z,3.90
2022-10-19T18:21:38.434Z,4.03
2022-10-19T18:24:09.150Z,3.80
2022-10-19T18:26:40.347Z,2.47
2022-10-19T18:29:12.464Z,3.00
2022-10-19T18:31:40.913Z,2.70
2022-10-19T18:34:13.517Z,3.00
2022-10-19T18:36:43.092Z,3.30
2022-10-19T18:39:12.807Z,4.87
2022-10-19T18:41:41.167Z,5.20
2022-10-19T18:44:13.108Z,5.83
2022-10-19T18:46:41.749Z,6.43
2022-10-19T18:49:11.581Z,12.07
2022-10-19T18:51:39.525Z,10.47
2022-10-19T18:54:09.238Z,10.20
2022-10-19T18:56:37.434Z,9.03
2022-10-19T18:59:06.406Z,7.73
2022-10-19T19:01:34.414Z,7.60
2022-10-19T19:04:07.699Z,6.80
2022-10-19T19:06:36.239Z,8.07
2022-10-19T19:09:07.500Z,7.00
2022-10-19T19:11:39.219Z,6.13
2022-10-19T19:14:09.435Z,6.57
2022-10-19T19:16:38.944Z,6.33
2022-10-19T19:19:08.098Z,6.73
2022-10-19T19:21:37.016Z,6.53
2022-10-19T19:24:07.157Z,6.47
2022-10-19T19:26:39.320Z,6.03
2022-10-19T19:29:07.218Z,6.17
2022-10-19T19:31:35.245Z,5.67
2022-10-19T19:34:03.259Z,5.50
2022-10-19T19:36:31.077Z,4.30
2022-10-19T19:39:23.738Z,4.73
2022-10-19T19:41:52.896Z,5.07
2022-10-19T19:44:20.773Z,4.37
2022-10-19T19:46:48.940Z,35.70
2022-10-19T19:49:17.090Z,44.73
2022-10-19T19:51:44.986Z,5.50
2022-10-19T19:54:12.872Z,5.93
2022-10-19T19:56:42.271Z,6.77
2022-10-19T19:59:13.574Z,6.87
2022-10-19T20:01:42.151Z,7.27
2022-10-19T20:04:10.393Z,7.00
2022-10-19T20:06:39.842Z,6.47
2022-10-19T20:09:08.802Z,6.17
2022-10-19T20:11:41.856Z,5.63
2022-10-19T20:14:11.880Z,4.97
2022-10-19T20:16:39.605Z,4.83
2022-10-19T20:19:09.601Z,4.73
2022-10-19T20:21:37.673Z,4.70
2022-10-19T20:24:05.738Z,5.00
2022-10-19T20:26:34.066Z,4.50
2022-10-19T20:29:03.882Z,5.27
2022-10-19T20:31:41.403Z,4.50
2022-10-19T20:34:10.961Z,4.70
2022-10-19T20:36:38.897Z,4.93
2022-10-19T20:39:06.697Z,5.17
2022-10-19T20:41:34.715Z,5.13
2022-10-19T20:44:05.636Z,5.00
2022-10-19T20:46:36.887Z,5.33
2022-10-19T20:49:04.882Z,5.87
2022-10-19T20:51:35.300Z,5.50
2022-10-19T20:54:07.065Z,5.10
2022-10-19T20:56:38.809Z,4.80
2022-10-19T20:59:09.049Z,5.37
2022-10-19T21:01:42.577Z,6.80
2022-10-19T21:04:12.333Z,5.43
2022-10-19T21:06:42.718Z,5.77
2022-10-19T21:09:12.029Z,5.73
2022-10-19T21:11:42.872Z,5.60
2022-10-19T21:14:14.446Z,5.23
2022-10-19T21:16:43.690Z,5.40
2022-10-19T21:19:14.170Z,6.50
2022-10-19T21:21:43.968Z,5.63
2022-10-19T21:24:14.146Z,6.67
2022-10-19T21:26:42.950Z,5.50
2022-10-19T21:29:12.186Z,5.43
2022-10-19T21:31:43.095Z,5.00
2022-10-19T21:34:16.352Z,6.00
2022-10-19T21:36:44.208Z,6.77
2022-10-19T21:39:12.063Z,6.00
2022-10-19T21:41:39.766Z,5.90
2022-10-19T21:44:07.465Z,6.20
2022-10-19T21:46:35.295Z,6.50
2022-10-19T21:49:03.045Z,6.70
2022-10-19T21:51:35.993Z,6.50
2022-10-19T21:54:04.609Z,6.53
2022-10-19T21:56:32.549Z,7.17
2022-10-19T21:59:00.406Z,6.73
2022-10-19T22:01:30.278Z,7.00
2022-10-19T22:03:58.923Z,7.77
2022-10-19T22:06:27.839Z,6.43
2022-10-19T22:08:57.681Z,6.97
2022-10-19T22:11:26.700Z,6.83
2022-10-19T22:13:55.751Z,6.17
2022-10-19T22:16:24.602Z,6.40
2022-10-19T22:18:53.285Z,6.00
2022-10-19T22:21:23.263Z,5.50
2022-10-19T22:23:57.115Z,5.87
2022-10-19T22:26:27.125Z,4.67
2022-10-19T22:28:56.161Z,5.30
2022-10-19T22:31:24.155Z,5.30
2022-10-19T22:33:51.854Z,6.03
2022-10-19T22:36:19.951Z,6.13
2022-10-19T22:38:47.764Z,6.33
2022-10-19T22:41:16.844Z,6.60
2022-10-19T22:43:44.595Z,6.30
2022-10-19T22:46:12.264Z,5.80
2022-10-19T22:48:39.968Z,6.10
2022-10-19T22:51:07.977Z,5.60
2022-10-19T22:53:35.697Z,5.07
2022-10-19T22:56:03.389Z,5.73
2022-10-19T22:58:32.546Z,5.97
2022-10-19T23:01:01.897Z,5.07
2022-10-19T23:03:29.635Z,4.73
2022-10-19T23:05:57.783Z,5.23
2022-10-19T23:08:25.751Z,4.63
2022-10-19T23:10:54.810Z,5.00
2022-10-19T23:13:22.649Z,4.70
2022-10-19T23:15:51.744Z,4.77
2022-10-19T23:18:19.611Z,5.03
2022-10-19T23:20:54.430Z,4.90
2022-10-19T23:23:22.137Z,4.90
2022-10-19T23:25:59.013Z,4.77
2022-10-19T23:28:26.730Z,5.30
2022-10-19T23:30:57.202Z,5.10
2022-10-19T23:33:24.989Z,5.17
2022-10-19T23:35:53.327Z,5.10
2022-10-19T23:38:21.014Z,5.40
2022-10-19T23:40:48.770Z,5.50
2022-10-19T23:43:16.468Z,4.70
2022-10-19T23:45:46.061Z,5.13
2022-10-19T23:48:15.157Z,4.70
2022-10-19T23:50:42.865Z,5.73
2022-10-19T23:53:10.556Z,5.17
2022-10-19T23:55:38.601Z,5.70
2022-10-19T23:58:06.280Z,6.00
